createdAt,value
2023-11-16T00:01:21.684Z,12.76
2023-11-16T00:03:49.723Z,12.71
2023-11-16T00:06:16.234Z,12.67
2023-11-16T00:08:42.736Z,12.66
2023-11-16T00:11:09.222Z,12.67
2023-11-16T00:13:35.731Z,12.68
2023-11-16T00:16:02.286Z,12.66
2023-11-16T00:18:31.739Z,12.67
2023-11-16T00:20:59.483Z,12.68
2023-11-16T00:23:26.039Z,12.67
2023-11-16T00:25:52.544Z,12.68
2023-11-16T00:28:21.187Z,12.65
2023-11-16T00:30:47.750Z,12.64
2023-11-16T00:33:28.372Z,12.62
2023-11-16T00:35:54.952Z,12.60
2023-11-16T00:38:21.437Z,12.49
2023-11-16T00:40:47.951Z,12.45
2023-11-16T00:43:14.446Z,12.39
2023-11-16T00:45:41.003Z,12.37
2023-11-16T00:48:07.658Z,12.36
2023-11-16T00:50:34.169Z,12.35
2023-11-16T00:53:00.613Z,12.32
2023-11-16T00:55:27.112Z,12.21
2023-11-16T00:57:53.545Z,12.21
2023-11-16T01:00:20.247Z,12.21
2023-11-16T01:02:47.010Z,12.16
2023-11-16T01:05:13.529Z,12.09
2023-11-16T01:07:40.162Z,12.05
2023-11-16T01:10:06.722Z,12.04
2023-11-16T01:12:33.220Z,12.05
2023-11-16T01:14:59.752Z,12.02
2023-11-16T01:17:26.329Z,12.06
2023-11-16T01:19:55.263Z,12.10
2023-11-16T01:22:21.737Z,12.12
2023-11-16T01:24:48.270Z,12.08
2023-11-16T01:27:14.865Z,12.06
2023-11-16T01:29:41.376Z,12.03
2023-11-16T01:32:07.811Z,12.03
2023-11-16T01:34:34.331Z,12.06
2023-11-16T01:37:00.729Z,12.07
2023-11-16T01:39:27.213Z,12.08
2023-11-16T01:41:53.685Z,12.12
2023-11-16T01:44:20.102Z,12.15
2023-11-16T01:46:46.562Z,12.17
2023-11-16T01:49:13.018Z,12.18
2023-11-16T01:51:39.467Z,12.18
2023-11-16T01:54:05.964Z,12.18
2023-11-16T01:56:32.435Z,12.18
2023-11-16T01:58:58.931Z,12.16
2023-11-16T02:01:25.412Z,12.17
2023-11-16T02:03:51.972Z,12.18
2023-11-16T02:06:18.509Z,12.17
2023-11-16T02:08:44.922Z,12.14
2023-11-16T02:11:11.402Z,12.12
2023-11-16T02:13:37.866Z,12.13
2023-11-16T02:16:04.406Z,12.14
2023-11-16T02:18:30.853Z,12.13
2023-11-16T02:20:57.318Z,12.12
2023-11-16T02:23:23.813Z,12.12
2023-11-16T02:25:50.257Z,12.13
2023-11-16T02:28:16.760Z,12.12
2023-11-16T02:30:43.256Z,12.07
2023-11-16T02:33:09.866Z,11.98
2023-11-16T02:35:36.337Z,11.98
2023-11-16T02:38:02.870Z,11.99
2023-11-16T02:40:29.424Z,11.95
2023-11-16T02:42:55.910Z,11.94
2023-11-16T02:45:22.421Z,11.94
2023-11-16T02:47:48.957Z,11.87
2023-11-16T02:50:15.468Z,11.86
2023-11-16T02:52:41.921Z,11.87
2023-11-16T02:55:08.390Z,11.86
2023-11-16T02:57:34.916Z,11.84
2023-11-16T03:00:01.625Z,11.83
2023-11-16T03:02:28.178Z,11.82
2023-11-16T03:04:57.716Z,11.83
2023-11-16T03:07:30.808Z,11.83
2023-11-16T03:09:59.806Z,11.81
2023-11-16T03:12:26.333Z,11.78
2023-11-16T03:14:52.898Z,11.78
2023-11-16T03:17:19.346Z,11.77
2023-11-16T03:19:45.798Z,11.68
2023-11-16T03:22:12.237Z,11.69
2023-11-16T03:24:38.689Z,11.66
2023-11-16T03:27:05.258Z,11.68
2023-11-16T03:29:31.664Z,11.65
2023-11-16T03:31:58.215Z,11.68
2023-11-16T03:34:24.760Z,11.65
2023-11-16T03:36:51.250Z,11.59
2023-11-16T03:39:17.679Z,11.58
2023-11-16T03:41:44.152Z,11.60
2023-11-16T03:44:10.622Z,11.58
2023-11-16T03:46:39.345Z,11.56
2023-11-16T03:49:05.920Z,11.56
2023-11-16T03:51:32.494Z,11.55
2023-11-16T03:53:58.944Z,11.53
2023-11-16T03:56:25.416Z,11.49
2023-11-16T03:58:51.907Z,11.52
2023-11-16T04:01:18.369Z,11.49
2023-11-16T04:03:45.116Z,11.49
2023-11-16T04:06:13.213Z,11.48
2023-11-16T04:08:42.404Z,11.50
2023-11-16T04:11:08.878Z,11.54
2023-11-16T04:13:35.301Z,11.57
2023-11-16T04:16:01.809Z,11.57
2023-11-16T04:18:28.324Z,11.56
2023-11-16T04:20:54.892Z,11.57
2023-11-16T04:23:21.359Z,11.55
2023-11-16T04:25:47.836Z,11.52
2023-11-16T04:28:14.382Z,11.53
2023-11-16T04:30:40.911Z,11.53
2023-11-16T04:33:07.549Z,11.56
2023-11-16T04:35:35.391Z,11.57
2023-11-16T04:38:01.865Z,11.53
2023-11-16T04:40:28.279Z,11.51
2023-11-16T04:42:54.697Z,11.49
2023-11-16T04:45:21.138Z,11.49
2023-11-16T04:47:49.750Z,11.46
2023-11-16T04:50:16.501Z,11.45
2023-11-16T04:52:42.963Z,11.46
2023-11-16T04:55:12.209Z,11.44
2023-11-16T04:57:40.373Z,11.45
2023-11-16T05:00:06.877Z,11.37
2023-11-16T05:02:33.425Z,11.17
2023-11-16T05:05:00.005Z,11.03
2023-11-16T05:07:26.453Z,11.05
2023-11-16T05:09:55.388Z,11.10
2023-11-16T05:12:22.125Z,11.16
2023-11-16T05:14:48.617Z,11.22
2023-11-16T05:17:15.056Z,11.24
2023-11-16T05:19:41.486Z,11.28
2023-11-16T05:22:07.968Z,11.29
2023-11-16T05:24:34.479Z,11.32
2023-11-16T05:27:01.001Z,11.34
2023-11-16T05:29:27.396Z,11.37
2023-11-16T05:31:53.858Z,11.38
2023-11-16T05:34:20.258Z,11.42
2023-11-16T05:36:46.751Z,11.43
2023-11-16T05:39:13.208Z,11.43
2023-11-16T05:41:39.701Z,11.42
2023-11-16T05:44:06.239Z,11.39
2023-11-16T05:46:35.402Z,11.39
2023-11-16T05:49:01.861Z,11.38
2023-11-16T05:51:31.330Z,11.40
2023-11-16T05:53:57.792Z,11.39
2023-11-16T05:56:24.240Z,11.38
2023-11-16T05:58:50.681Z,11.38
2023-11-16T06:01:17.206Z,11.37
2023-11-16T06:03:43.809Z,11.38
2023-11-16T06:06:10.392Z,11.35
2023-11-16T06:08:36.914Z,11.36
2023-11-16T06:11:03.481Z,11.22
2023-11-16T06:13:30.002Z,11.21
2023-11-16T06:15:56.536Z,11.10
2023-11-16T06:18:24.070Z,10.93
2023-11-16T06:20:50.518Z,10.92
2023-11-16T06:23:16.963Z,10.79
2023-11-16T06:25:43.489Z,10.64
2023-11-16T06:28:10.005Z,10.50
2023-11-16T06:30:36.458Z,10.46
2023-11-16T06:33:02.993Z,10.49
2023-11-16T06:35:29.519Z,10.52
2023-11-16T06:37:56.034Z,10.67
2023-11-16T06:40:22.503Z,10.83
2023-11-16T06:42:48.989Z,10.93
2023-11-16T06:45:15.515Z,11.02
2023-11-16T06:47:42.082Z,11.07
2023-11-16T06:50:08.685Z,11.10
2023-11-16T06:52:35.170Z,11.16
2023-11-16T06:55:01.987Z,11.17
2023-11-16T06:57:28.947Z,11.24
2023-11-16T06:59:55.488Z,11.30
2023-11-16T07:02:22.033Z,11.31
2023-11-16T07:04:48.497Z,11.27
2023-11-16T07:07:15.033Z,11.22
2023-11-16T07:09:41.536Z,11.29
2023-11-16T07:12:08.021Z,11.33
2023-11-16T07:14:43.608Z,11.33
2023-11-16T07:17:17.544Z,11.30
2023-11-16T07:19:44.075Z,11.32
2023-11-16T07:22:10.551Z,11.35
2023-11-16T07:24:36.979Z,11.37
2023-11-16T07:27:03.447Z,11.37
2023-11-16T07:29:29.857Z,11.39
2023-11-16T07:31:56.333Z,11.42
2023-11-16T07:34:22.729Z,11.45
2023-11-16T07:36:49.329Z,11.47
2023-11-16T07:39:15.909Z,11.49
2023-11-16T07:41:42.403Z,11.46
2023-11-16T07:44:08.854Z,11.40
2023-11-16T07:46:35.320Z,11.42
2023-11-16T07:49:01.800Z,11.38
2023-11-16T07:51:28.322Z,11.40
2023-11-16T07:53:54.876Z,11.43
2023-11-16T07:56:21.361Z,11.46
2023-11-16T07:58:47.820Z,11.47
2023-11-16T08:01:14.302Z,11.52
2023-11-16T08:03:40.991Z,11.54
2023-11-16T08:06:07.544Z,11.54
2023-11-16T08:08:33.996Z,11.39
2023-11-16T08:11:00.481Z,11.38
2023-11-16T08:13:29.081Z,11.43
2023-11-16T08:15:55.866Z,11.46
2023-11-16T08:18:22.367Z,11.51
2023-11-16T08:20:48.799Z,11.53
2023-11-16T08:23:15.315Z,11.56
2023-11-16T08:25:41.834Z,11.60
2023-11-16T08:28:08.313Z,11.63
2023-11-16T08:30:34.776Z,11.62
2023-11-16T08:33:01.279Z,11.64
2023-11-16T08:35:27.946Z,11.64
2023-11-16T08:37:54.427Z,11.65
2023-11-16T08:40:20.947Z,11.67
2023-11-16T08:42:47.372Z,11.64
2023-11-16T08:45:13.873Z,11.66
2023-11-16T08:47:40.297Z,11.69
2023-11-16T08:50:06.802Z,11.71
2023-11-16T08:52:33.221Z,11.66
2023-11-16T08:54:59.615Z,11.74
2023-11-16T08:57:26.181Z,11.79
2023-11-16T08:59:52.765Z,11.83
2023-11-16T09:02:19.158Z,11.88
2023-11-16T09:04:45.643Z,11.93
2023-11-16T09:07:12.111Z,11.95
2023-11-16T09:09:38.905Z,12.03
2023-11-16T09:12:05.402Z,12.09
2023-11-16T09:14:31.864Z,12.13
2023-11-16T09:17:09.516Z,12.15
2023-11-16T09:19:39.158Z,12.10
2023-11-16T09:22:05.624Z,12.05
2023-11-16T09:24:32.216Z,12.01
2023-11-16T09:26:58.774Z,12.04
2023-11-16T09:29:25.282Z,12.05
2023-11-16T09:31:51.808Z,12.07
2023-11-16T09:34:18.317Z,12.04
2023-11-16T09:36:44.823Z,12.00
2023-11-16T09:39:11.321Z,11.99
2023-11-16T09:41:37.801Z,11.99
2023-11-16T09:44:04.249Z,11.95
2023-11-16T09:46:30.770Z,11.96
2023-11-16T09:49:00.233Z,11.98
2023-11-16T09:51:27.008Z,12.01
2023-11-16T09:53:53.484Z,12.04
2023-11-16T09:56:24.682Z,12.01
2023-11-16T09:58:54.010Z,12.04
2023-11-16T10:01:20.499Z,12.07
2023-11-16T10:03:47.217Z,12.10
2023-11-16T10:06:13.770Z,12.13
2023-11-16T10:08:40.264Z,12.16
2023-11-16T10:11:06.771Z,12.18
2023-11-16T10:13:33.227Z,12.20
2023-11-16T10:15:59.815Z,12.20
2023-11-16T10:18:26.316Z,12.18
2023-11-16T10:20:52.824Z,12.21
2023-11-16T10:23:19.253Z,12.21
2023-11-16T10:25:45.677Z,12.11
2023-11-16T10:28:12.155Z,12.11
2023-11-16T10:30:38.645Z,12.12
2023-11-16T10:33:05.100Z,12.11
2023-11-16T10:35:31.511Z,12.09
2023-11-16T10:37:58.018Z,12.05
2023-11-16T10:40:24.474Z,11.96
2023-11-16T10:42:50.917Z,11.97
2023-11-16T10:45:17.433Z,11.89
2023-11-16T10:47:43.995Z,11.89
2023-11-16T10:50:10.620Z,11.92
2023-11-16T10:52:37.056Z,11.99
2023-11-16T10:55:05.512Z,12.05
2023-11-16T10:57:33.162Z,12.05
2023-11-16T10:59:59.641Z,12.09
2023-11-16T11:02:26.167Z,12.09
2023-11-16T11:04:52.868Z,12.07
2023-11-16T11:07:19.401Z,12.08
2023-11-16T11:09:45.998Z,12.10
2023-11-16T11:12:12.424Z,12.11
2023-11-16T11:14:38.864Z,12.17
2023-11-16T11:17:05.408Z,12.07
2023-11-16T11:19:31.921Z,11.96
2023-11-16T11:21:58.418Z,11.82
2023-11-16T11:24:24.900Z,11.77
2023-11-16T11:26:51.419Z,11.78
2023-11-16T11:29:17.822Z,11.80
2023-11-16T11:31:44.365Z,11.73
2023-11-16T11:34:10.821Z,11.68
2023-11-16T11:36:37.468Z,11.62
2023-11-16T11:39:03.915Z,11.61
2023-11-16T11:41:32.355Z,11.50
2023-11-16T11:43:58.826Z,11.31
2023-11-16T11:46:25.363Z,11.24
2023-11-16T11:48:51.813Z,11.27
2023-11-16T11:51:21.075Z,11.28
2023-11-16T11:53:49.782Z,11.32
2023-11-16T11:56:16.681Z,11.39
2023-11-16T11:58:43.306Z,11.45
2023-11-16T12:01:09.807Z,11.48
2023-11-16T12:03:36.448Z,11.42
2023-11-16T12:06:03.053Z,11.42
2023-11-16T12:08:29.573Z,11.48
2023-11-16T12:10:56.020Z,11.51
2023-11-16T12:13:22.566Z,11.55
2023-11-16T12:15:49.397Z,11.59
2023-11-16T12:18:17.124Z,11.59
2023-11-16T12:20:45.043Z,11.63
2023-11-16T12:23:11.557Z,11.65
2023-11-16T12:25:38.060Z,11.68
2023-11-16T12:28:04.585Z,11.77
2023-11-16T12:30:31.309Z,11.84
2023-11-16T12:32:57.731Z,11.89
2023-11-16T12:35:24.188Z,11.94
2023-11-16T12:37:50.719Z,12.01
2023-11-16T12:40:17.187Z,12.08
2023-11-16T12:42:43.671Z,12.12
2023-11-16T12:45:10.185Z,12.12
2023-11-16T12:47:38.120Z,12.11
2023-11-16T12:50:06.711Z,12.16
2023-11-16T12:52:33.316Z,12.21
2023-11-16T12:54:59.807Z,12.20
2023-11-16T12:57:26.461Z,12.22
2023-11-16T12:59:52.935Z,12.24
2023-11-16T13:02:19.788Z,12.25
2023-11-16T13:04:46.316Z,12.24
2023-11-16T13:07:12.804Z,12.24
2023-11-16T13:09:39.293Z,12.20
2023-11-16T13:12:12.571Z,12.24
2023-11-16T13:14:46.938Z,12.22
2023-11-16T13:17:13.529Z,12.17
2023-11-16T13:19:42.378Z,12.20
2023-11-16T13:22:08.829Z,12.24
2023-11-16T13:24:37.967Z,12.28
2023-11-16T13:27:04.449Z,12.33
2023-11-16T13:29:30.874Z,12.34
2023-11-16T13:31:57.342Z,12.30
2023-11-16T13:34:23.819Z,12.27
2023-11-16T13:36:50.316Z,12.20
2023-11-16T13:39:16.836Z,12.32
2023-11-16T13:41:43.240Z,12.37
2023-11-16T13:44:09.812Z,12.50
2023-11-16T13:46:36.272Z,12.49
2023-11-16T13:49:02.762Z,12.54
2023-11-16T13:51:29.201Z,12.56
2023-11-16T13:53:55.722Z,12.57
2023-11-16T13:56:22.139Z,12.61
2023-11-16T13:58:50.437Z,12.57
2023-11-16T14:01:18.351Z,12.62
2023-11-16T14:03:45.063Z,12.66
2023-11-16T14:06:11.624Z,12.68
2023-11-16T14:08:38.157Z,12.64
2023-11-16T14:11:04.663Z,12.70
2023-11-16T14:13:31.308Z,12.71
2023-11-16T14:16:04.628Z,12.75
2023-11-16T14:18:32.126Z,12.71
2023-11-16T14:20:58.688Z,12.75
2023-11-16T14:23:25.754Z,12.81
2023-11-16T14:25:54.533Z,12.88
2023-11-16T14:28:21.189Z,12.93
2023-11-16T14:30:47.728Z,12.93
2023-11-16T14:33:14.353Z,12.69
2023-11-16T14:35:40.882Z,12.67
2023-11-16T14:38:07.398Z,12.72
2023-11-16T14:40:33.904Z,12.75
2023-11-16T14:43:00.506Z,12.76
2023-11-16T14:45:27.076Z,12.75
2023-11-16T14:47:53.708Z,12.76
2023-11-16T14:50:20.299Z,12.76
2023-11-16T14:52:49.154Z,12.75
2023-11-16T14:55:19.526Z,12.71
2023-11-16T14:57:46.011Z,12.65
2023-11-16T15:00:12.590Z,12.68
2023-11-16T15:02:39.140Z,12.59
2023-11-16T15:05:09.585Z,12.61
2023-11-16T15:07:37.459Z,12.52
2023-11-16T15:10:04.084Z,12.46
2023-11-16T15:12:30.606Z,12.48
2023-11-16T15:14:57.251Z,12.54
2023-11-16T15:17:23.764Z,12.58
2023-11-16T15:19:50.303Z,12.62
2023-11-16T15:22:16.825Z,12.70
2023-11-16T15:24:43.390Z,12.75
2023-11-16T15:27:11.185Z,12.62
2023-11-16T15:29:39.057Z,12.59
2023-11-16T15:32:05.693Z,12.68
2023-11-16T15:34:32.386Z,12.74
2023-11-16T15:36:58.997Z,12.79
2023-11-16T15:39:25.532Z,12.82
2023-11-16T15:41:52.005Z,12.84
2023-11-16T15:44:18.461Z,12.80
2023-11-16T15:46:49.317Z,12.84
2023-11-16T15:49:18.773Z,12.89
2023-11-16T15:51:46.878Z,12.88
2023-11-16T15:54:13.506Z,12.80
2023-11-16T15:56:40.073Z,12.86
2023-11-16T15:59:08.682Z,12.86
2023-11-16T16:01:35.303Z,12.75
2023-11-16T16:04:03.312Z,12.56
2023-11-16T16:06:29.955Z,12.60
2023-11-16T16:08:56.483Z,12.70
2023-11-16T16:11:23.014Z,12.81
2023-11-16T16:13:49.562Z,12.88
2023-11-16T16:16:16.276Z,12.95
2023-11-16T16:18:42.896Z,12.95
2023-11-16T16:21:09.591Z,13.01
2023-11-16T16:23:36.105Z,12.99
2023-11-16T16:26:02.675Z,13.03
2023-11-16T16:28:29.274Z,13.06
2023-11-16T16:30:55.871Z,13.00
2023-11-16T16:33:22.345Z,13.02
2023-11-16T16:35:48.755Z,13.02
2023-11-16T16:38:15.218Z,13.00
2023-11-16T16:40:41.682Z,13.03
2023-11-16T16:43:08.208Z,13.06
2023-11-16T16:45:34.828Z,13.01
2023-11-16T16:48:06.935Z,13.03
2023-11-16T16:50:37.107Z,13.06
2023-11-16T16:53:03.612Z,13.10
2023-11-16T16:55:30.232Z,13.16
2023-11-16T16:57:56.940Z,13.23
2023-11-16T17:00:23.468Z,13.32
2023-11-16T17:02:52.429Z,13.43
2023-11-16T17:05:19.036Z,13.54
2023-11-16T17:07:45.492Z,13.61
2023-11-16T17:10:12.093Z,13.68
2023-11-16T17:12:38.624Z,13.76
2023-11-16T17:15:05.194Z,13.86
2023-11-16T17:17:31.884Z,14.00
2023-11-16T17:19:58.469Z,14.04
2023-11-16T17:22:24.912Z,14.06
2023-11-16T17:24:51.408Z,14.04
2023-11-16T17:27:19.504Z,14.01
2023-11-16T17:29:47.275Z,14.00
2023-11-16T17:32:13.865Z,14.00
2023-11-16T17:34:40.337Z,13.95
2023-11-16T17:37:06.867Z,13.74
2023-11-16T17:39:33.410Z,13.77
2023-11-16T17:42:00.344Z,13.87
2023-11-16T17:44:26.959Z,13.91
2023-11-16T17:46:53.534Z,13.91
2023-11-16T17:49:20.098Z,13.93
2023-11-16T17:51:46.713Z,13.85
2023-11-16T17:54:13.195Z,13.85
2023-11-16T17:56:39.910Z,13.92
2023-11-16T17:59:06.416Z,13.96
2023-11-16T18:01:32.911Z,14.08
2023-11-16T18:03:59.561Z,14.12
2023-11-16T18:06:26.124Z,14.15
2023-11-16T18:08:52.635Z,14.16
2023-11-16T18:11:19.090Z,14.18
2023-11-16T18:13:45.725Z,14.23
2023-11-16T18:16:12.225Z,14.24
2023-11-16T18:18:38.798Z,14.26
2023-11-16T18:21:05.313Z,14.26
2023-11-16T18:23:31.767Z,14.30
2023-11-16T18:25:58.327Z,14.25
2023-11-16T18:28:24.801Z,14.28
2023-11-16T18:30:51.365Z,14.33
2023-11-16T18:33:20.676Z,14.34
2023-11-16T18:35:47.175Z,14.46
2023-11-16T18:38:13.663Z,14.59
2023-11-16T18:40:40.152Z,14.67
2023-11-16T18:43:06.691Z,14.73
2023-11-16T18:45:33.281Z,14.75
2023-11-16T18:47:59.820Z,14.79
2023-11-16T18:50:26.332Z,14.77
2023-11-16T18:52:52.829Z,14.75
2023-11-16T18:55:19.790Z,14.73
2023-11-16T18:57:46.379Z,14.68
2023-11-16T19:00:12.917Z,14.77
2023-11-16T19:02:40.505Z,14.76
2023-11-16T19:05:07.077Z,14.81
2023-11-16T19:07:33.544Z,14.83
2023-11-16T19:10:00.024Z,14.91
2023-11-16T19:12:26.495Z,15.05
2023-11-16T19:14:53.004Z,15.20
2023-11-16T19:17:19.526Z,15.35
2023-11-16T19:19:46.016Z,15.33
2023-11-16T19:22:12.586Z,15.42
2023-11-16T19:24:39.123Z,15.41
2023-11-16T19:27:05.580Z,15.50
2023-11-16T19:29:32.053Z,15.49
2023-11-16T19:31:58.585Z,15.41
2023-11-16T19:34:25.091Z,15.42
2023-11-16T19:36:51.682Z,15.35
2023-11-16T19:39:18.197Z,15.35
2023-11-16T19:41:44.708Z,15.39
2023-11-16T19:44:11.199Z,15.39
2023-11-16T19:46:37.728Z,15.50
2023-11-16T19:49:04.217Z,15.51
2023-11-16T19:51:30.699Z,15.47
2023-11-16T19:53:57.206Z,15.32
2023-11-16T19:56:24.852Z,15.44
2023-11-16T19:58:52.329Z,15.37
2023-11-16T20:01:18.954Z,15.38
2023-11-16T20:03:47.090Z,15.33
2023-11-16T20:06:14.764Z,15.27
2023-11-16T20:08:41.200Z,15.21
2023-11-16T20:11:07.820Z,15.26
2023-11-16T20:13:34.379Z,15.39
2023-11-16T20:16:00.839Z,15.42
2023-11-16T20:18:27.345Z,15.48
2023-11-16T20:20:57.600Z,15.52
2023-11-16T20:23:26.381Z,15.50
2023-11-16T20:25:53.006Z,15.50
2023-11-16T20:28:19.517Z,15.58
2023-11-16T20:30:46.092Z,15.45
2023-11-16T20:33:12.670Z,15.25
2023-11-16T20:35:39.221Z,15.16
2023-11-16T20:38:05.676Z,15.17
2023-11-16T20:40:33.468Z,15.15
2023-11-16T20:42:59.969Z,15.17
2023-11-16T20:45:26.410Z,15.11
2023-11-16T20:47:53.025Z,15.19
2023-11-16T20:50:19.600Z,15.25
2023-11-16T20:52:46.172Z,15.36
2023-11-16T20:55:12.988Z,15.44
2023-11-16T20:57:39.752Z,15.37
2023-11-16T21:00:06.344Z,15.31
2023-11-16T21:02:32.940Z,15.08
2023-11-16T21:04:59.604Z,15.16
2023-11-16T21:07:26.057Z,15.18
2023-11-16T21:09:52.533Z,15.21
2023-11-16T21:12:19.028Z,15.30
2023-11-16T21:14:46.489Z,15.27
2023-11-16T21:17:12.951Z,15.27
2023-11-16T21:19:39.431Z,15.23
2023-11-16T21:22:05.932Z,15.21
2023-11-16T21:24:32.394Z,15.10
2023-11-16T21:26:58.923Z,15.05
2023-11-16T21:29:25.362Z,15.11
2023-11-16T21:31:51.953Z,15.17
2023-11-16T21:34:18.589Z,15.29
2023-11-16T21:36:45.002Z,15.23
2023-11-16T21:39:11.501Z,15.13
2023-11-16T21:41:37.976Z,15.17
2023-11-16T21:44:04.497Z,15.14
2023-11-16T21:46:31.083Z,15.10
2023-11-16T21:48:57.588Z,15.03
2023-11-16T21:51:24.123Z,15.06
2023-11-16T21:53:50.644Z,14.98
2023-11-16T21:56:17.149Z,14.98
2023-11-16T21:58:43.582Z,14.80
2023-11-16T22:01:10.035Z,14.82
2023-11-16T22:03:36.596Z,14.77
2023-11-16T22:06:03.060Z,14.78
2023-11-16T22:08:29.520Z,14.88
2023-11-16T22:10:55.952Z,14.93
2023-11-16T22:13:22.443Z,15.01
2023-11-16T22:15:49.067Z,15.01
2023-11-16T22:18:15.670Z,15.04
2023-11-16T22:20:42.068Z,15.06
2023-11-16T22:23:08.580Z,15.02
2023-11-16T22:25:35.116Z,14.96
2023-11-16T22:28:01.644Z,14.93
2023-11-16T22:30:28.128Z,14.93
2023-11-16T22:32:54.661Z,14.84
2023-11-16T22:35:21.200Z,14.78
2023-11-16T22:37:47.757Z,14.75
2023-11-16T22:40:14.356Z,14.81
2023-11-16T22:42:40.929Z,14.81
2023-11-16T22:45:07.389Z,14.83
2023-11-16T22:47:33.945Z,14.87
2023-11-16T22:50:00.424Z,14.75
2023-11-16T22:52:26.855Z,14.71
2023-11-16T22:54:53.400Z,14.65
2023-11-16T22:57:19.811Z,14.26
2023-11-16T22:59:46.266Z,13.63
2023-11-16T23:02:12.730Z,13.15
2023-11-16T23:04:39.342Z,12.75
2023-11-16T23:07:08.308Z,12.53
2023-11-16T23:09:34.748Z,12.37
2023-11-16T23:12:01.184Z,12.18
2023-11-16T23:14:27.626Z,12.06
2023-11-16T23:16:54.143Z,12.01
2023-11-16T23:19:20.790Z,12.07
2023-11-16T23:21:47.344Z,12.13
2023-11-16T23:24:13.865Z,12.34
2023-11-16T23:26:40.370Z,12.58
2023-11-16T23:29:06.807Z,12.73
2023-11-16T23:31:33.359Z,13.00
2023-11-16T23:33:59.910Z,13.14
2023-11-16T23:36:26.420Z,13.28
2023-11-16T23:38:52.946Z,13.46
2023-11-16T23:41:20.840Z,13.39
2023-11-16T23:43:48.933Z,13.38
2023-11-16T23:46:15.536Z,13.22
2023-11-16T23:48:42.091Z,13.34
2023-11-16T23:51:15.851Z,13.27
2023-11-16T23:53:46.102Z,13.22
2023-11-16T23:56:12.580Z,13.18
2023-11-16T23:58:39.054Z,12.99
